sensor_id;sensor_type;location;lat;lon;timestamp;P1;durP1;ratioP1;P2;durP2;ratioP2
35478;SDS011;21594;49.794;18.652;2022-07-04T00:00:16;11.53;;;9.53;;
35478;SDS011;21594;49.794;18.652;2022-07-04T00:02:47;13.85;;;9.25;;
35478;SDS011;21594;49.794;18.652;2022-07-04T00:05:14;12.65;;;9.38;;
35478;SDS011;21594;49.794;18.652;2022-07-04T00:07:41;12.82;;;10.63;;
35478;SDS011;21594;49.794;18.652;2022-07-04T00:10:11;10.00;;;8.68;;
35478;SDS011;21594;49.794;18.652;2022-07-04T00:12:38;13.70;;;10.03;;
35478;SDS011;21594;49.794;18.652;2022-07-04T00:15:07;13.05;;;9.38;;
35478;SDS011;21594;49.794;18.652;2022-07-04T00:17:37;12.43;;;9.63;;
35478;SDS011;21594;49.794;18.652;2022-07-04T00:20:04;10.18;;;8.43;;
35478;SDS011;21594;49.794;18.652;2022-07-04T00:22:34;11.65;;;8.95;;
35478;SDS011;21594;49.794;18.652;2022-07-04T00:25:01;10.72;;;8.05;;
35478;SDS011;21594;49.794;18.652;2022-07-04T00:27:28;9.93;;;7.97;;
35478;SDS011;21594;49.794;18.652;2022-07-04T00:29:54;11.45;;;9.03;;
35478;SDS011;21594;49.794;18.652;2022-07-04T00:32:21;14.00;;;8.85;;
35478;SDS011;21594;49.794;18.652;2022-07-04T00:34:48;10.58;;;8.38;;
35478;SDS011;21594;49.794;18.652;2022-07-04T00:37:14;12.78;;;8.15;;
35478;SDS011;21594;49.794;18.652;2022-07-04T00:39:41;10.80;;;8.10;;
35478;SDS011;21594;49.794;18.652;2022-07-04T00:42:07;13.78;;;8.08;;
35478;SDS011;21594;49.794;18.652;2022-07-04T00:44:34;10.43;;;8.48;;
35478;SDS011;21594;49.794;18.652;2022-07-04T00:47:03;13.32;;;8.70;;
35478;SDS011;21594;49.794;18.652;2022-07-04T00:49:30;11.75;;;9.10;;
35478;SDS011;21594;49.794;18.652;2022-07-04T00:51:59;11.80;;;8.73;;
35478;SDS011;21594;49.794;18.652;2022-07-04T00:54:32;10.93;;;8.83;;
35478;SDS011;21594;49.794;18.652;2022-07-04T00:57:08;12.58;;;9.63;;
35478;SDS011;21594;49.794;18.652;2022-07-04T00:59:34;10.65;;;8.28;;
35478;SDS011;21594;49.794;18.652;2022-07-04T01:02:00;12.90;;;8.78;;
35478;SDS011;21594;49.794;18.652;2022-07-04T01:04:33;12.03;;;8.38;;
35478;SDS011;21594;49.794;18.652;2022-07-04T01:07:03;12.65;;;9.15;;
35478;SDS011;21594;49.794;18.652;2022-07-04T01:09:30;10.45;;;8.60;;
35478;SDS011;21594;49.794;18.652;2022-07-04T01:11:56;10.93;;;9.15;;
35478;SDS011;21594;49.794;18.652;2022-07-04T01:14:22;15.32;;;9.93;;
35478;SDS011;21594;49.794;18.652;2022-07-04T01:16:49;13.22;;;10.25;;
35478;SDS011;21594;49.794;18.652;2022-07-04T01:19:15;12.68;;;9.53;;
35478;SDS011;21594;49.794;18.652;2022-07-04T01:21:50;12.93;;;9.53;;
35478;SDS011;21594;49.794;18.652;2022-07-04T01:24:16;13.78;;;9.35;;
35478;SDS011;21594;49.794;18.652;2022-07-04T01:26:42;12.73;;;9.18;;
35478;SDS011;21594;49.794;18.652;2022-07-04T01:29:08;14.38;;;8.70;;
35478;SDS011;21594;49.794;18.652;2022-07-04T01:31:36;13.20;;;10.38;;
35478;SDS011;21594;49.794;18.652;2022-07-04T01:34:08;14.85;;;9.60;;
35478;SDS011;21594;49.794;18.652;2022-07-04T01:39:06;13.40;;;10.30;;
35478;SDS011;21594;49.794;18.652;2022-07-04T01:41:33;16.05;;;11.95;;
35478;SDS011;21594;49.794;18.652;2022-07-04T01:44:00;16.62;;;12.33;;
35478;SDS011;21594;49.794;18.652;2022-07-04T01:46:28;17.80;;;12.53;;
35478;SDS011;21594;49.794;18.652;2022-07-04T01:48:59;16.30;;;12.37;;
35478;SDS011;21594;49.794;18.652;2022-07-04T01:51:24;18.80;;;13.38;;
35478;SDS011;21594;49.794;18.652;2022-07-04T01:53:50;17.82;;;12.28;;
35478;SDS011;21594;49.794;18.652;2022-07-04T01:56:18;18.20;;;13.70;;
35478;SDS011;21594;49.794;18.652;2022-07-04T01:58:47;18.67;;;13.15;;
35478;SDS011;21594;49.794;18.652;2022-07-04T02:01:13;20.70;;;13.38;;
35478;SDS011;21594;49.794;18.652;2022-07-04T02:04:01;18.95;;;11.53;;
35478;SDS011;21594;49.794;18.652;2022-07-04T02:06:30;18.62;;;12.93;;
35478;SDS011;21594;49.794;18.652;2022-07-04T02:08:59;18.45;;;13.45;;
35478;SDS011;21594;49.794;18.652;2022-07-04T02:11:41;16.27;;;12.20;;
35478;SDS011;21594;49.794;18.652;2022-07-04T02:14:27;17.20;;;12.37;;
35478;SDS011;21594;49.794;18.652;2022-07-04T02:16:54;15.75;;;12.58;;
35478;SDS011;21594;49.794;18.652;2022-07-04T02:19:21;17.05;;;13.00;;
35478;SDS011;21594;49.794;18.652;2022-07-04T02:21:48;16.12;;;11.43;;
35478;SDS011;21594;49.794;18.652;2022-07-04T02:24:14;20.57;;;12.30;;
35478;SDS011;21594;49.794;18.652;2022-07-04T02:26:40;16.77;;;11.90;;
35478;SDS011;21594;49.794;18.652;2022-07-04T02:29:07;19.62;;;12.23;;
35478;SDS011;21594;49.794;18.652;2022-07-04T02:31:38;18.95;;;12.30;;
35478;SDS011;21594;49.794;18.652;2022-07-04T02:34:04;16.67;;;12.03;;
35478;SDS011;21594;49.794;18.652;2022-07-04T02:36:30;14.20;;;12.00;;
35478;SDS011;21594;49.794;18.652;2022-07-04T02:38:57;18.52;;;11.97;;
35478;SDS011;21594;49.794;18.652;2022-07-04T02:41:23;17.30;;;12.23;;
35478;SDS011;21594;49.794;18.652;2022-07-04T02:43:51;17.87;;;11.08;;
35478;SDS011;21594;49.794;18.652;2022-07-04T02:46:17;18.07;;;12.00;;
35478;SDS011;21594;49.794;18.652;2022-07-04T02:48:44;16.75;;;11.83;;
35478;SDS011;21594;49.794;18.652;2022-07-04T02:51:11;19.12;;;12.35;;
35478;SDS011;21594;49.794;18.652;2022-07-04T02:53:38;19.45;;;12.30;;
35478;SDS011;21594;49.794;18.652;2022-07-04T02:56:04;16.07;;;11.45;;
35478;SDS011;21594;49.794;18.652;2022-07-04T02:58:32;17.12;;;12.40;;
35478;SDS011;21594;49.794;18.652;2022-07-04T03:01:01;16.25;;;11.85;;
35478;SDS011;21594;49.794;18.652;2022-07-04T03:03:27;18.67;;;13.00;;
35478;SDS011;21594;49.794;18.652;2022-07-04T03:06:03;18.32;;;12.23;;
35478;SDS011;21594;49.794;18.652;2022-07-04T03:08:32;15.03;;;11.22;;
35478;SDS011;21594;49.794;18.652;2022-07-04T03:10:59;15.95;;;11.35;;
35478;SDS011;21594;49.794;18.652;2022-07-04T03:13:25;17.25;;;11.45;;
35478;SDS011;21594;49.794;18.652;2022-07-04T03:15:52;16.05;;;12.10;;
35478;SDS011;21594;49.794;18.652;2022-07-04T03:18:20;16.07;;;11.10;;
35478;SDS011;21594;49.794;18.652;2022-07-04T03:20:47;14.18;;;10.53;;
35478;SDS011;21594;49.794;18.652;2022-07-04T03:23:13;14.28;;;10.05;;
35478;SDS011;21594;49.794;18.652;2022-07-04T03:25:39;12.68;;;10.93;;
35478;SDS011;21594;49.794;18.652;2022-07-04T03:28:10;13.38;;;10.28;;
35478;SDS011;21594;49.794;18.652;2022-07-04T03:30:36;13.80;;;10.80;;
35478;SDS011;21594;49.794;18.652;2022-07-04T03:33:03;16.27;;;10.58;;
35478;SDS011;21594;49.794;18.652;2022-07-04T03:35:30;13.38;;;10.10;;
35478;SDS011;21594;49.794;18.652;2022-07-04T03:37:56;15.90;;;11.48;;
35478;SDS011;21594;49.794;18.652;2022-07-04T03:40:29;12.82;;;10.58;;
35478;SDS011;21594;49.794;18.652;2022-07-04T03:42:57;14.65;;;10.63;;
35478;SDS011;21594;49.794;18.652;2022-07-04T03:45:27;13.90;;;11.03;;
35478;SDS011;21594;49.794;18.652;2022-07-04T03:47:53;14.38;;;10.28;;
35478;SDS011;21594;49.794;18.652;2022-07-04T03:50:19;13.30;;;9.50;;
35478;SDS011;21594;49.794;18.652;2022-07-04T03:52:45;12.80;;;10.03;;
35478;SDS011;21594;49.794;18.652;2022-07-04T03:55:12;12.93;;;9.73;;
35478;SDS011;21594;49.794;18.652;2022-07-04T03:57:38;13.88;;;10.05;;
35478;SDS011;21594;49.794;18.652;2022-07-04T04:00:04;12.88;;;10.40;;
35478;SDS011;21594;49.794;18.652;2022-07-04T04:02:36;10.80;;;9.63;;
35478;SDS011;21594;49.794;18.652;2022-07-04T04:05:03;11.80;;;8.80;;
35478;SDS011;21594;49.794;18.652;2022-07-04T04:08:00;11.10;;;9.03;;
35478;SDS011;21594;49.794;18.652;2022-07-04T04:10:24;12.20;;;9.73;;
35478;SDS011;21594;49.794;18.652;2022-07-04T04:12:51;10.58;;;9.05;;
35478;SDS011;21594;49.794;18.652;2022-07-04T04:15:17;11.85;;;9.60;;
35478;SDS011;21594;49.794;18.652;2022-07-04T04:17:44;12.13;;;9.33;;
35478;SDS011;21594;49.794;18.652;2022-07-04T04:20:12;10.28;;;9.00;;
35478;SDS011;21594;49.794;18.652;2022-07-04T04:22:39;11.15;;;8.48;;
35478;SDS011;21594;49.794;18.652;2022-07-04T04:25:06;10.08;;;7.97;;
35478;SDS011;21594;49.794;18.652;2022-07-04T04:27:39;9.60;;;8.28;;
35478;SDS011;21594;49.794;18.652;2022-07-04T04:30:07;9.45;;;8.00;;
35478;SDS011;21594;49.794;18.652;2022-07-04T04:32:42;10.03;;;6.90;;
35478;SDS011;21594;49.794;18.652;2022-07-04T04:35:08;9.25;;;7.53;;
35478;SDS011;21594;49.794;18.652;2022-07-04T04:37:37;8.65;;;7.20;;
35478;SDS011;21594;49.794;18.652;2022-07-04T04:40:03;13.03;;;7.78;;
35478;SDS011;21594;49.794;18.652;2022-07-04T04:42:30;9.53;;;8.20;;
35478;SDS011;21594;49.794;18.652;2022-07-04T04:44:58;8.23;;;7.30;;
35478;SDS011;21594;49.794;18.652;2022-07-04T04:47:28;9.48;;;8.20;;
35478;SDS011;21594;49.794;18.652;2022-07-04T04:49:57;9.35;;;7.87;;
35478;SDS011;21594;49.794;18.652;2022-07-04T04:52:29;9.08;;;7.80;;
35478;SDS011;21594;49.794;18.652;2022-07-04T04:54:56;9.00;;;8.10;;
35478;SDS011;21594;49.794;18.652;2022-07-04T04:57:22;9.00;;;8.00;;
35478;SDS011;21594;49.794;18.652;2022-07-04T04:59:48;8.88;;;7.35;;
35478;SDS011;21594;49.794;18.652;2022-07-04T05:02:22;9.20;;;7.85;;
35478;SDS011;21594;49.794;18.652;2022-07-04T05:04:50;10.43;;;7.22;;
35478;SDS011;21594;49.794;18.652;2022-07-04T05:07:22;8.63;;;7.70;;
35478;SDS011;21594;49.794;18.652;2022-07-04T05:09:49;9.03;;;7.50;;
35478;SDS011;21594;49.794;18.652;2022-07-04T05:12:21;8.63;;;7.45;;
35478;SDS011;21594;49.794;18.652;2022-07-04T05:14:48;9.43;;;8.00;;
35478;SDS011;21594;49.794;18.652;2022-07-04T05:17:14;10.58;;;8.28;;
35478;SDS011;21594;49.794;18.652;2022-07-04T05:19:41;8.68;;;7.17;;
35478;SDS011;21594;49.794;18.652;2022-07-04T05:22:08;9.83;;;7.47;;
35478;SDS011;21594;49.794;18.652;2022-07-04T05:24:36;8.83;;;7.35;;
35478;SDS011;21594;49.794;18.652;2022-07-04T05:27:07;8.50;;;7.47;;
35478;SDS011;21594;49.794;18.652;2022-07-04T05:29:33;8.35;;;7.45;;
35478;SDS011;21594;49.794;18.652;2022-07-04T05:31:59;9.65;;;7.55;;
35478;SDS011;21594;49.794;18.652;2022-07-04T05:34:26;9.20;;;7.95;;
35478;SDS011;21594;49.794;18.652;2022-07-04T05:37:01;9.08;;;7.78;;
35478;SDS011;21594;49.794;18.652;2022-07-04T05:39:28;9.88;;;8.08;;
35478;SDS011;21594;49.794;18.652;2022-07-04T05:41:54;9.38;;;7.72;;
35478;SDS011;21594;49.794;18.652;2022-07-04T05:44:20;9.85;;;8.38;;
35478;SDS011;21594;49.794;18.652;2022-07-04T05:46:46;9.65;;;8.28;;
35478;SDS011;21594;49.794;18.652;2022-07-04T05:49:12;8.00;;;7.20;;
35478;SDS011;21594;49.794;18.652;2022-07-04T05:51:39;9.03;;;7.20;;
35478;SDS011;21594;49.794;18.652;2022-07-04T05:54:07;9.80;;;7.67;;
35478;SDS011;21594;49.794;18.652;2022-07-04T05:56:33;9.60;;;7.83;;
35478;SDS011;21594;49.794;18.652;2022-07-04T05:59:00;8.80;;;6.78;;
35478;SDS011;21594;49.794;18.652;2022-07-04T06:01:26;12.43;;;7.83;;
35478;SDS011;21594;49.794;18.652;2022-07-04T06:03:52;7.90;;;7.15;;
35478;SDS011;21594;49.794;18.652;2022-07-04T06:06:18;8.63;;;7.72;;
35478;SDS011;21594;49.794;18.652;2022-07-04T06:08:44;8.03;;;7.22;;
35478;SDS011;21594;49.794;18.652;2022-07-04T06:11:10;10.50;;;7.33;;
35478;SDS011;21594;49.794;18.652;2022-07-04T06:13:37;8.73;;;7.83;;
35478;SDS011;21594;49.794;18.652;2022-07-04T06:16:03;7.92;;;6.95;;
35478;SDS011;21594;49.794;18.652;2022-07-04T06:18:36;8.23;;;7.30;;
35478;SDS011;21594;49.794;18.652;2022-07-04T06:21:02;7.72;;;6.72;;
35478;SDS011;21594;49.794;18.652;2022-07-04T06:23:30;10.78;;;7.03;;
35478;SDS011;21594;49.794;18.652;2022-07-04T06:25:56;9.78;;;8.10;;
35478;SDS011;21594;49.794;18.652;2022-07-04T06:28:22;11.50;;;7.30;;
35478;SDS011;21594;49.794;18.652;2022-07-04T06:30:49;7.70;;;6.90;;
35478;SDS011;21594;49.794;18.652;2022-07-04T06:33:18;9.20;;;6.95;;
35478;SDS011;21594;49.794;18.652;2022-07-04T06:35:49;8.88;;;6.87;;
35478;SDS011;21594;49.794;18.652;2022-07-04T06:38:28;11.05;;;7.70;;
35478;SDS011;21594;49.794;18.652;2022-07-04T06:40:56;8.08;;;7.28;;
35478;SDS011;21594;49.794;18.652;2022-07-04T06:43:23;9.18;;;7.58;;
35478;SDS011;21594;49.794;18.652;2022-07-04T06:45:51;7.97;;;6.95;;
35478;SDS011;21594;49.794;18.652;2022-07-04T06:48:18;10.25;;;7.30;;
35478;SDS011;21594;49.794;18.652;2022-07-04T06:50:44;9.33;;;6.60;;
35478;SDS011;21594;49.794;18.652;2022-07-04T06:53:11;11.15;;;6.85;;
35478;SDS011;21594;49.794;18.652;2022-07-04T06:55:37;10.93;;;7.42;;
35478;SDS011;21594;49.794;18.652;2022-07-04T06:58:04;10.20;;;7.58;;
35478;SDS011;21594;49.794;18.652;2022-07-04T07:00:33;13.25;;;6.95;;
35478;SDS011;21594;49.794;18.652;2022-07-04T07:03:00;10.80;;;6.80;;
35478;SDS011;21594;49.794;18.652;2022-07-04T07:05:28;9.85;;;6.22;;
35478;SDS011;21594;49.794;18.652;2022-07-04T07:07:58;11.33;;;6.62;;
35478;SDS011;21594;49.794;18.652;2022-07-04T07:10:24;8.23;;;5.95;;
35478;SDS011;21594;49.794;18.652;2022-07-04T07:12:50;6.70;;;5.53;;
35478;SDS011;21594;49.794;18.652;2022-07-04T07:15:19;9.25;;;5.45;;
35478;SDS011;21594;49.794;18.652;2022-07-04T07:17:48;7.60;;;5.78;;
35478;SDS011;21594;49.794;18.652;2022-07-04T07:20:14;7.15;;;5.90;;
35478;SDS011;21594;49.794;18.652;2022-07-04T07:22:48;6.22;;;5.35;;
35478;SDS011;21594;49.794;18.652;2022-07-04T07:25:15;6.47;;;5.78;;
35478;SDS011;21594;49.794;18.652;2022-07-04T07:27:42;5.75;;;5.22;;
35478;SDS011;21594;49.794;18.652;2022-07-04T07:30:09;6.97;;;5.95;;
35478;SDS011;21594;49.794;18.652;2022-07-04T07:32:35;8.28;;;5.45;;
35478;SDS011;21594;49.794;18.652;2022-07-04T07:35:02;7.45;;;5.08;;
35478;SDS011;21594;49.794;18.652;2022-07-04T07:37:28;5.45;;;4.90;;
35478;SDS011;21594;49.794;18.652;2022-07-04T07:40:01;5.60;;;4.50;;
35478;SDS011;21594;49.794;18.652;2022-07-04T07:42:29;4.67;;;4.20;;
35478;SDS011;21594;49.794;18.652;2022-07-04T07:45:05;5.75;;;4.00;;
35478;SDS011;21594;49.794;18.652;2022-07-04T07:47:30;5.37;;;4.17;;
35478;SDS011;21594;49.794;18.652;2022-07-04T07:49:56;5.03;;;4.30;;
35478;SDS011;21594;49.794;18.652;2022-07-04T07:52:23;5.05;;;3.47;;
35478;SDS011;21594;49.794;18.652;2022-07-04T07:54:49;4.03;;;3.37;;
35478;SDS011;21594;49.794;18.652;2022-07-04T07:57:17;4.35;;;3.30;;
35478;SDS011;21594;49.794;18.652;2022-07-04T07:59:43;3.87;;;3.50;;
35478;SDS011;21594;49.794;18.652;2022-07-04T08:02:09;4.80;;;3.05;;
35478;SDS011;21594;49.794;18.652;2022-07-04T08:04:35;3.50;;;3.02;;
35478;SDS011;21594;49.794;18.652;2022-07-04T08:07:03;3.30;;;3.00;;
35478;SDS011;21594;49.794;18.652;2022-07-04T08:09:31;3.35;;;3.05;;
35478;SDS011;21594;49.794;18.652;2022-07-04T08:11:59;3.47;;;3.05;;
35478;SDS011;21594;49.794;18.652;2022-07-04T08:14:26;4.42;;;2.85;;
35478;SDS011;21594;49.794;18.652;2022-07-04T08:16:55;3.52;;;3.22;;
35478;SDS011;21594;49.794;18.652;2022-07-04T08:19:24;5.55;;;2.83;;
35478;SDS011;21594;49.794;18.652;2022-07-04T08:21:54;4.30;;;2.98;;
35478;SDS011;21594;49.794;18.652;2022-07-04T08:24:19;3.33;;;2.87;;
35478;SDS011;21594;49.794;18.652;2022-07-04T08:26:45;3.15;;;2.85;;
35478;SDS011;21594;49.794;18.652;2022-07-04T08:29:15;3.55;;;2.62;;
35478;SDS011;21594;49.794;18.652;2022-07-04T08:31:46;3.45;;;2.60;;
35478;SDS011;21594;49.794;18.652;2022-07-04T08:34:19;5.37;;;2.67;;
35478;SDS011;21594;49.794;18.652;2022-07-04T08:36:48;4.00;;;2.62;;
35478;SDS011;21594;49.794;18.652;2022-07-04T08:39:14;3.75;;;2.20;;
35478;SDS011;21594;49.794;18.652;2022-07-04T08:41:40;2.67;;;2.40;;
35478;SDS011;21594;49.794;18.652;2022-07-04T08:44:10;3.58;;;2.92;;
35478;SDS011;21594;49.794;18.652;2022-07-04T08:46:39;3.22;;;2.70;;
35478;SDS011;21594;49.794;18.652;2022-07-04T08:49:14;4.28;;;3.02;;
35478;SDS011;21594;49.794;18.652;2022-07-04T08:51:54;4.00;;;3.10;;
35478;SDS011;21594;49.794;18.652;2022-07-04T08:54:24;3.67;;;2.90;;
35478;SDS011;21594;49.794;18.652;2022-07-04T08:57:10;4.03;;;2.65;;
35478;SDS011;21594;49.794;18.652;2022-07-04T08:59:56;2.75;;;2.55;;
35478;SDS011;21594;49.794;18.652;2022-07-04T09:02:28;4.17;;;3.10;;
35478;SDS011;21594;49.794;18.652;2022-07-04T09:04:55;2.92;;;2.50;;
35478;SDS011;21594;49.794;18.652;2022-07-04T09:07:21;4.12;;;2.80;;
35478;SDS011;21594;49.794;18.652;2022-07-04T09:09:54;3.15;;;2.85;;
35478;SDS011;21594;49.794;18.652;2022-07-04T09:12:22;2.30;;;2.10;;
35478;SDS011;21594;49.794;18.652;2022-07-04T09:14:48;2.83;;;2.40;;
35478;SDS011;21594;49.794;18.652;2022-07-04T09:17:17;2.62;;;2.20;;
35478;SDS011;21594;49.794;18.652;2022-07-04T09:19:43;2.17;;;1.98;;
35478;SDS011;21594;49.794;18.652;2022-07-04T09:22:12;4.08;;;2.12;;
35478;SDS011;21594;49.794;18.652;2022-07-04T09:24:51;4.42;;;1.85;;
35478;SDS011;21594;49.794;18.652;2022-07-04T09:30:08;1.85;;;1.75;;
35478;SDS011;21594;49.794;18.652;2022-07-04T09:32:36;2.10;;;1.90;;
35478;SDS011;21594;49.794;18.652;2022-07-04T09:35:05;1.77;;;1.67;;
35478;SDS011;21594;49.794;18.652;2022-07-04T09:37:35;1.85;;;1.55;;
35478;SDS011;21594;49.794;18.652;2022-07-04T09:40:20;1.82;;;1.72;;
35478;SDS011;21594;49.794;18.652;2022-07-04T09:42:36;2.67;;;1.70;;
35478;SDS011;21594;49.794;18.652;2022-07-04T09:45:04;2.70;;;1.90;;
35478;SDS011;21594;49.794;18.652;2022-07-04T09:47:31;1.70;;;1.60;;
35478;SDS011;21594;49.794;18.652;2022-07-04T09:49:59;2.02;;;1.80;;
35478;SDS011;21594;49.794;18.652;2022-07-04T09:52:29;2.37;;;2.05;;
35478;SDS011;21594;49.794;18.652;2022-07-04T09:55:05;2.00;;;1.90;;
35478;SDS011;21594;49.794;18.652;2022-07-04T09:57:43;2.20;;;1.92;;
35478;SDS011;21594;49.794;18.652;2022-07-04T10:00:21;3.65;;;1.80;;
35478;SDS011;21594;49.794;18.652;2022-07-04T10:02:55;2.08;;;1.92;;
35478;SDS011;21594;49.794;18.652;2022-07-04T10:05:28;2.45;;;1.85;;
35478;SDS011;21594;49.794;18.652;2022-07-04T10:07:53;2.62;;;2.10;;
35478;SDS011;21594;49.794;18.652;2022-07-04T10:10:35;2.70;;;1.95;;
35478;SDS011;21594;49.794;18.652;2022-07-04T10:13:05;2.05;;;1.85;;
35478;SDS011;21594;49.794;18.652;2022-07-04T10:15:33;2.45;;;2.25;;
35478;SDS011;21594;49.794;18.652;2022-07-04T10:18:03;2.08;;;1.92;;
35478;SDS011;21594;49.794;18.652;2022-07-04T10:20:31;3.08;;;2.00;;
35478;SDS011;21594;49.794;18.652;2022-07-04T10:22:57;2.10;;;1.80;;
35478;SDS011;21594;49.794;18.652;2022-07-04T10:25:27;2.00;;;1.57;;
35478;SDS011;21594;49.794;18.652;2022-07-04T10:27:58;1.70;;;1.60;;
35478;SDS011;21594;49.794;18.652;2022-07-04T10:30:29;2.85;;;2.20;;
35478;SDS011;21594;49.794;18.652;2022-07-04T10:32:54;5.15;;;2.12;;
35478;SDS011;21594;49.794;18.652;2022-07-04T10:38:17;1.62;;;1.52;;
35478;SDS011;21594;49.794;18.652;2022-07-04T10:51:47;3.55;;;1.60;;
35478;SDS011;21594;49.794;18.652;2022-07-04T10:54:16;1.12;;;1.12;;
35478;SDS011;21594;49.794;18.652;2022-07-04T11:00:02;1.37;;;1.27;;
35478;SDS011;21594;49.794;18.652;2022-07-04T11:02:27;1.62;;;1.40;;
35478;SDS011;21594;49.794;18.652;2022-07-04T11:05:07;1.70;;;1.60;;
35478;SDS011;21594;49.794;18.652;2022-07-04T11:18:16;1.87;;;1.75;;
35478;SDS011;21594;49.794;18.652;2022-07-04T11:20:42;2.47;;;1.30;;
35478;SDS011;21594;49.794;18.652;2022-07-04T11:23:15;1.92;;;1.27;;
35478;SDS011;21594;49.794;18.652;2022-07-04T11:25:45;1.40;;;1.30;;
35478;SDS011;21594;49.794;18.652;2022-07-04T11:28:22;3.25;;;1.50;;
35478;SDS011;21594;49.794;18.652;2022-07-04T11:31:01;2.42;;;1.50;;
35478;SDS011;21594;49.794;18.652;2022-07-04T11:33:32;2.02;;;1.25;;
35478;SDS011;21594;49.794;18.652;2022-07-04T11:36:03;1.62;;;1.52;;
35478;SDS011;21594;49.794;18.652;2022-07-04T11:38:45;3.05;;;1.52;;
35478;SDS011;21594;49.794;18.652;2022-07-04T11:41:18;1.72;;;1.62;;
35478;SDS011;21594;49.794;18.652;2022-07-04T11:44:09;2.17;;;1.50;;
35478;SDS011;21594;49.794;18.652;2022-07-04T11:47:00;1.72;;;1.50;;
35478;SDS011;21594;49.794;18.652;2022-07-04T11:52:16;1.70;;;1.40;;
35478;SDS011;21594;49.794;18.652;2022-07-04T11:54:49;3.47;;;1.50;;
35478;SDS011;21594;49.794;18.652;2022-07-04T11:57:23;2.17;;;1.77;;
35478;SDS011;21594;49.794;18.652;2022-07-04T11:59:51;1.85;;;1.75;;
35478;SDS011;21594;49.794;18.652;2022-07-04T12:02:26;1.52;;;1.42;;
35478;SDS011;21594;49.794;18.652;2022-07-04T12:04:53;3.17;;;1.80;;
35478;SDS011;21594;49.794;18.652;2022-07-04T12:07:23;1.90;;;1.52;;
35478;SDS011;21594;49.794;18.652;2022-07-04T12:09:56;1.52;;;1.42;;
35478;SDS011;21594;49.794;18.652;2022-07-04T12:12:24;1.45;;;1.35;;
35478;SDS011;21594;49.794;18.652;2022-07-04T12:14:57;3.62;;;1.75;;
35478;SDS011;21594;49.794;18.652;2022-07-04T12:17:29;1.60;;;1.50;;
35478;SDS011;21594;49.794;18.652;2022-07-04T12:19:58;2.33;;;1.50;;
35478;SDS011;21594;49.794;18.652;2022-07-04T12:24:56;1.52;;;1.40;;
35478;SDS011;21594;49.794;18.652;2022-07-04T12:27:24;1.67;;;1.57;;
35478;SDS011;21594;49.794;18.652;2022-07-04T12:29:51;2.40;;;1.47;;
35478;SDS011;21594;49.794;18.652;2022-07-04T12:32:20;1.90;;;1.40;;
35478;SDS011;21594;49.794;18.652;2022-07-04T12:34:47;1.52;;;1.42;;
35478;SDS011;21594;49.794;18.652;2022-07-04T12:37:14;1.92;;;1.80;;
35478;SDS011;21594;49.794;18.652;2022-07-04T12:39:44;1.70;;;1.60;;
35478;SDS011;21594;49.794;18.652;2022-07-04T12:42:15;3.27;;;1.72;;
35478;SDS011;21594;49.794;18.652;2022-07-04T12:44:43;1.70;;;1.60;;
35478;SDS011;21594;49.794;18.652;2022-07-04T12:47:11;3.98;;;1.67;;
35478;SDS011;21594;49.794;18.652;2022-07-04T12:49:46;2.50;;;1.57;;
35478;SDS011;21594;49.794;18.652;2022-07-04T12:52:14;2.85;;;1.57;;
35478;SDS011;21594;49.794;18.652;2022-07-04T12:54:42;1.67;;;1.32;;
35478;SDS011;21594;49.794;18.652;2022-07-04T12:57:14;1.85;;;1.57;;
35478;SDS011;21594;49.794;18.652;2022-07-04T12:59:42;1.60;;;1.50;;
35478;SDS011;21594;49.794;18.652;2022-07-04T13:02:09;1.50;;;1.40;;
35478;SDS011;21594;49.794;18.652;2022-07-04T13:04:39;1.60;;;1.50;;
35478;SDS011;21594;49.794;18.652;2022-07-04T13:07:15;3.58;;;1.57;;
35478;SDS011;21594;49.794;18.652;2022-07-04T13:09:43;2.37;;;1.70;;
35478;SDS011;21594;49.794;18.652;2022-07-04T13:12:12;1.67;;;1.52;;
35478;SDS011;21594;49.794;18.652;2022-07-04T13:14:52;3.12;;;1.57;;
35478;SDS011;21594;49.794;18.652;2022-07-04T13:17:19;2.20;;;1.60;;
35478;SDS011;21594;49.794;18.652;2022-07-04T13:19:48;1.98;;;1.77;;
35478;SDS011;21594;49.794;18.652;2022-07-04T13:22:15;2.65;;;1.80;;
35478;SDS011;21594;49.794;18.652;2022-07-04T13:24:49;2.75;;;1.92;;
35478;SDS011;21594;49.794;18.652;2022-07-04T13:27:16;1.80;;;1.65;;
35478;SDS011;21594;49.794;18.652;2022-07-04T13:29:43;1.62;;;1.52;;
35478;SDS011;21594;49.794;18.652;2022-07-04T13:32:09;1.90;;;1.60;;
35478;SDS011;21594;49.794;18.652;2022-07-04T13:34:36;2.27;;;1.67;;
35478;SDS011;21594;49.794;18.652;2022-07-04T13:37:02;2.65;;;1.57;;
35478;SDS011;21594;49.794;18.652;2022-07-04T13:39:30;3.15;;;1.70;;
35478;SDS011;21594;49.794;18.652;2022-07-04T13:41:57;2.95;;;1.90;;
35478;SDS011;21594;49.794;18.652;2022-07-04T13:44:26;3.65;;;1.70;;
35478;SDS011;21594;49.794;18.652;2022-07-04T13:46:52;2.35;;;1.57;;
35478;SDS011;21594;49.794;18.652;2022-07-04T13:49:19;3.05;;;1.72;;
35478;SDS011;21594;49.794;18.652;2022-07-04T13:51:45;2.05;;;1.72;;
35478;SDS011;21594;49.794;18.652;2022-07-04T13:54:23;2.47;;;1.85;;
35478;SDS011;21594;49.794;18.652;2022-07-04T13:56:49;2.47;;;1.75;;
35478;SDS011;21594;49.794;18.652;2022-07-04T13:59:22;1.72;;;1.50;;
35478;SDS011;21594;49.794;18.652;2022-07-04T14:01:48;3.98;;;1.90;;
35478;SDS011;21594;49.794;18.652;2022-07-04T14:04:14;3.25;;;1.70;;
35478;SDS011;21594;49.794;18.652;2022-07-04T14:06:40;3.15;;;1.80;;
35478;SDS011;21594;49.794;18.652;2022-07-04T14:09:06;1.90;;;1.37;;
35478;SDS011;21594;49.794;18.652;2022-07-04T14:11:32;1.62;;;1.50;;
35478;SDS011;21594;49.794;18.652;2022-07-04T14:14:02;2.52;;;1.60;;
35478;SDS011;21594;49.794;18.652;2022-07-04T14:16:28;1.70;;;1.60;;
35478;SDS011;21594;49.794;18.652;2022-07-04T14:18:55;1.80;;;1.70;;
35478;SDS011;21594;49.794;18.652;2022-07-04T14:21:21;3.20;;;2.85;;
35478;SDS011;21594;49.794;18.652;2022-07-04T14:23:47;2.77;;;2.15;;
35478;SDS011;21594;49.794;18.652;2022-07-04T14:26:27;2.67;;;1.85;;
35478;SDS011;21594;49.794;18.652;2022-07-04T14:28:53;3.58;;;1.90;;
35478;SDS011;21594;49.794;18.652;2022-07-04T14:31:19;3.05;;;1.90;;
35478;SDS011;21594;49.794;18.652;2022-07-04T14:33:45;3.45;;;2.50;;
35478;SDS011;21594;49.794;18.652;2022-07-04T14:36:11;2.45;;;1.90;;
35478;SDS011;21594;49.794;18.652;2022-07-04T14:38:37;2.47;;;1.90;;
35478;SDS011;21594;49.794;18.652;2022-07-04T14:41:07;2.47;;;1.67;;
35478;SDS011;21594;49.794;18.652;2022-07-04T14:43:38;3.37;;;1.82;;
35478;SDS011;21594;49.794;18.652;2022-07-04T14:46:11;2.83;;;1.75;;
35478;SDS011;21594;49.794;18.652;2022-07-04T14:48:39;3.45;;;1.65;;
35478;SDS011;21594;49.794;18.652;2022-07-04T14:51:05;2.45;;;1.80;;
35478;SDS011;21594;49.794;18.652;2022-07-04T14:53:31;2.92;;;1.70;;
35478;SDS011;21594;49.794;18.652;2022-07-04T14:55:57;2.40;;;1.25;;
35478;SDS011;21594;49.794;18.652;2022-07-04T14:58:24;2.75;;;1.55;;
35478;SDS011;21594;49.794;18.652;2022-07-04T15:00:50;3.10;;;1.15;;
35478;SDS011;21594;49.794;18.652;2022-07-04T15:03:22;3.60;;;1.30;;
35478;SDS011;21594;49.794;18.652;2022-07-04T15:05:48;2.50;;;1.47;;
35478;SDS011;21594;49.794;18.652;2022-07-04T15:08:15;1.50;;;1.40;;
35478;SDS011;21594;49.794;18.652;2022-07-04T15:10:41;2.33;;;1.80;;
35478;SDS011;21594;49.794;18.652;2022-07-04T15:13:08;5.15;;;1.42;;
35478;SDS011;21594;49.794;18.652;2022-07-04T15:15:34;1.80;;;1.65;;